sensor_id;sensor_type;location;lat;lon;timestamp;pressure;altitude;pressure_sealevel;temperature;humidity
498;BME280;39559;48.630;9.162;2022-11-23T00:03:48;96173.25;;;-0.23;100.00
498;BME280;39559;48.630;9.162;2022-11-23T00:06:15;96175.13;;;-0.33;100.00
498;BME280;39559;48.630;9.162;2022-11-23T00:10:30;96170.53;;;-0.15;100.00
498;BME280;39559;48.630;9.162;2022-11-23T00:12:58;96176.69;;;-0.26;100.00
498;BME280;39559;48.630;9.162;2022-11-23T00:15:27;96171.09;;;-0.42;100.00
498;BME280;39559;48.630;9.162;2022-11-23T00:17:52;96178.78;;;-0.45;100.00
498;BME280;39559;48.630;9.162;2022-11-23T00:20:18;96168.56;;;-0.43;100.00
498;BME280;39559;48.630;9.162;2022-11-23T00:22:46;96178.84;;;-0.48;100.00
498;BME280;39559;48.630;9.162;2022-11-23T00:25:11;96174.56;;;-0.46;100.00
498;BME280;39559;48.630;9.162;2022-11-23T00:27:37;96181.41;;;-0.48;100.00
498;BME280;39559;48.630;9.162;2022-11-23T00:30:03;96182.97;;;-0.42;100.00
498;BME280;39559;48.630;9.162;2022-11-23T00:34:28;96189.53;;;-0.72;100.00
498;BME280;39559;48.630;9.162;2022-11-23T00:36:53;96190.50;;;-0.78;100.00
498;BME280;39559;48.630;9.162;2022-11-23T00:39:19;96184.53;;;-0.79;100.00
498;BME280;39559;48.630;9.162;2022-11-23T00:41:44;96191.09;;;-0.65;100.00
498;BME280;39559;48.630;9.162;2022-11-23T00:44:10;96185.53;;;-0.86;100.00
498;BME280;39559;48.630;9.162;2022-11-23T00:46:35;96185.31;;;-0.75;100.00
498;BME280;39559;48.630;9.162;2022-11-23T00:49:01;96185.25;;;-0.70;100.00
498;BME280;39559;48.630;9.162;2022-11-23T00:51:32;96175.91;;;-0.71;100.00
498;BME280;39559;48.630;9.162;2022-11-23T00:53:58;96179.47;;;-0.80;100.00
498;BME280;39559;48.630;9.162;2022-11-23T00:58:28;96176.38;;;-0.94;100.00
498;BME280;39559;48.630;9.162;2022-11-23T01:01:01;96173.94;;;-1.02;100.00
498;BME280;39559;48.630;9.162;2022-11-23T01:03:28;96171.97;;;-0.88;100.00
498;BME280;39559;48.630;9.162;2022-11-23T01:05:54;96171.94;;;-0.86;100.00
498;BME280;39559;48.630;9.162;2022-11-23T01:08:20;96176.25;;;-0.90;100.00
498;BME280;39559;48.630;9.162;2022-11-23T01:10:45;96175.38;;;-0.87;100.00
498;BME280;39559;48.630;9.162;2022-11-23T01:13:11;96179.69;;;-0.91;100.00
498;BME280;39559;48.630;9.162;2022-11-23T01:15:36;96178.81;;;-0.90;100.00
498;BME280;39559;48.630;9.162;2022-11-23T01:18:02;96175.25;;;-0.81;100.00
498;BME280;39559;48.630;9.162;2022-11-23T01:22:29;96180.53;;;-0.90;100.00
498;BME280;39559;48.630;9.162;2022-11-23T01:24:55;96176.91;;;-0.79;100.00
498;BME280;39559;48.630;9.162;2022-11-23T01:27:20;96175.69;;;-0.61;100.00
498;BME280;39559;48.630;9.162;2022-11-23T01:29:46;96174.22;;;-0.71;100.00
498;BME280;39559;48.630;9.162;2022-11-23T01:32:11;96167.00;;;-0.50;100.00
498;BME280;39559;48.630;9.162;2022-11-23T01:34:37;96163.31;;;-0.35;100.00
498;BME280;39559;48.630;9.162;2022-11-23T01:37:02;96173.84;;;-0.51;100.00
498;BME280;39559;48.630;9.162;2022-11-23T01:39:28;96183.25;;;-0.54;100.00
498;BME280;39559;48.630;9.162;2022-11-23T01:41:53;96183.59;;;-0.73;100.00
498;BME280;39559;48.630;9.162;2022-11-23T01:46:30;96183.06;;;-0.89;100.00
498;BME280;39559;48.630;9.162;2022-11-23T01:49:05;96189.56;;;-0.74;100.00
498;BME280;39559;48.630;9.162;2022-11-23T01:51:38;96185.59;;;-0.89;100.00
498;BME280;39559;48.630;9.162;2022-11-23T01:54:11;96187.38;;;-0.94;100.00
498;BME280;39559;48.630;9.162;2022-11-23T01:56:41;96181.34;;;-0.88;100.00
498;BME280;39559;48.630;9.162;2022-11-23T01:59:11;96192.34;;;-0.86;100.00
498;BME280;39559;48.630;9.162;2022-11-23T02:01:39;96201.59;;;-0.82;100.00
498;BME280;39559;48.630;9.162;2022-11-23T02:04:06;96202.38;;;-0.79;100.00
498;BME280;39559;48.630;9.162;2022-11-23T02:06:33;96200.50;;;-0.67;100.00
498;BME280;39559;48.630;9.162;2022-11-23T02:10:32;96198.59;;;-0.57;100.00
498;BME280;39559;48.630;9.162;2022-11-23T02:13:07;96197.59;;;-0.49;100.00
498;BME280;39559;48.630;9.162;2022-11-23T02:15:34;96191.19;;;-0.28;100.00
498;BME280;39559;48.630;9.162;2022-11-23T02:18:03;96199.06;;;-0.39;100.00
498;BME280;39559;48.630;9.162;2022-11-23T02:20:30;96195.88;;;-0.50;100.00
498;BME280;39559;48.630;9.162;2022-11-23T02:26:35;96196.72;;;-0.49;100.00
498;BME280;39559;48.630;9.162;2022-11-23T02:28:44;96197.88;;;-0.64;100.00
498;BME280;39559;48.630;9.162;2022-11-23T02:31:11;96199.66;;;-0.69;100.00
498;BME280;39559;48.630;9.162;2022-11-23T02:34:33;96202.00;;;-0.59;100.00
498;BME280;39559;48.630;9.162;2022-11-23T02:36:58;96209.81;;;-0.66;100.00
498;BME280;39559;48.630;9.162;2022-11-23T02:39:39;96208.25;;;-0.73;100.00
498;BME280;39559;48.630;9.162;2022-11-23T02:42:06;96208.09;;;-0.66;100.00
498;BME280;39559;48.630;9.162;2022-11-23T02:44:52;96210.03;;;-0.79;100.00
498;BME280;39559;48.630;9.162;2022-11-23T02:47:20;96203.38;;;-0.86;100.00
498;BME280;39559;48.630;9.162;2022-11-23T02:49:47;96203.44;;;-0.89;100.00
498;BME280;39559;48.630;9.162;2022-11-23T02:52:14;96214.47;;;-0.88;100.00
498;BME280;39559;48.630;9.162;2022-11-23T02:54:40;96208.53;;;-0.89;100.00
498;BME280;39559;48.630;9.162;2022-11-23T02:58:34;96208.78;;;-1.04;100.00
498;BME280;39559;48.630;9.162;2022-11-23T03:00:59;96210.31;;;-0.94;100.00
498;BME280;39559;48.630;9.162;2022-11-23T03:03:25;96205.53;;;-1.11;100.00
498;BME280;39559;48.630;9.162;2022-11-23T03:05:50;96215.75;;;-1.12;100.00
498;BME280;39559;48.630;9.162;2022-11-23T03:08:16;96213.03;;;-1.03;100.00
498;BME280;39559;48.630;9.162;2022-11-23T03:10:41;96209.75;;;-1.10;100.00
498;BME280;39559;48.630;9.162;2022-11-23T03:13:07;96210.38;;;-0.97;100.00
498;BME280;39559;48.630;9.162;2022-11-23T03:15:32;96205.56;;;-1.12;100.00
498;BME280;39559;48.630;9.162;2022-11-23T03:17:58;96209.94;;;-1.22;100.00
498;BME280;39559;48.630;9.162;2022-11-23T03:22:35;96210.97;;;-1.31;100.00
498;BME280;39559;48.630;9.162;2022-11-23T03:25:00;96208.09;;;-1.12;100.00
498;BME280;39559;48.630;9.162;2022-11-23T03:27:26;96209.75;;;-1.11;100.00
498;BME280;39559;48.630;9.162;2022-11-23T03:29:51;96204.53;;;-1.04;100.00
498;BME280;39559;48.630;9.162;2022-11-23T03:32:17;96208.38;;;-1.29;100.00
498;BME280;39559;48.630;9.162;2022-11-23T03:34:42;96212.84;;;-1.44;100.00
498;BME280;39559;48.630;9.162;2022-11-23T03:37:08;96207.78;;;-1.45;100.00
498;BME280;39559;48.630;9.162;2022-11-23T03:39:33;96218.13;;;-1.55;100.00
498;BME280;39559;48.630;9.162;2022-11-23T03:41:59;96215.75;;;-1.65;100.00
498;BME280;39559;48.630;9.162;2022-11-23T03:46:34;96208.16;;;-1.70;100.00
498;BME280;39559;48.630;9.162;2022-11-23T03:48:59;96206.13;;;-1.49;100.00
498;BME280;39559;48.630;9.162;2022-11-23T03:51:25;96203.06;;;-1.70;100.00
498;BME280;39559;48.630;9.162;2022-11-23T03:53:50;96204.94;;;-1.81;100.00
498;BME280;39559;48.630;9.162;2022-11-23T03:56:16;96194.78;;;-1.30;100.00
498;BME280;39559;48.630;9.162;2022-11-23T03:58:42;96195.38;;;-1.65;100.00
498;BME280;39559;48.630;9.162;2022-11-23T04:01:07;96198.78;;;-1.68;100.00
498;BME280;39559;48.630;9.162;2022-11-23T04:03:33;96195.13;;;-1.50;100.00
498;BME280;39559;48.630;9.162;2022-11-23T04:05:58;96191.00;;;-1.57;100.00
498;BME280;39559;48.630;9.162;2022-11-23T04:10:38;96195.28;;;-1.61;100.00
498;BME280;39559;48.630;9.162;2022-11-23T04:13:03;96188.63;;;-1.68;100.00
498;BME280;39559;48.630;9.162;2022-11-23T04:15:29;96189.34;;;-1.60;100.00
498;BME280;39559;48.630;9.162;2022-11-23T04:17:54;96187.78;;;-1.70;100.00
498;BME280;39559;48.630;9.162;2022-11-23T04:20:20;96183.50;;;-1.66;100.00
498;BME280;39559;48.630;9.162;2022-11-23T04:22:45;96194.34;;;-1.53;100.00
498;BME280;39559;48.630;9.162;2022-11-23T04:25:11;96190.81;;;-1.46;100.00
498;BME280;39559;48.630;9.162;2022-11-23T04:27:36;96188.91;;;-1.32;100.00
498;BME280;39559;48.630;9.162;2022-11-23T04:30:03;96183.06;;;-1.40;100.00
498;BME280;39559;48.630;9.162;2022-11-23T04:34:39;96178.56;;;-1.24;100.00
498;BME280;39559;48.630;9.162;2022-11-23T04:37:05;96181.13;;;-1.24;100.00
498;BME280;39559;48.630;9.162;2022-11-23T04:39:30;96176.78;;;-1.19;100.00
498;BME280;39559;48.630;9.162;2022-11-23T04:41:56;96180.94;;;-1.13;100.00
498;BME280;39559;48.630;9.162;2022-11-23T04:44:21;96187.88;;;-1.22;100.00
498;BME280;39559;48.630;9.162;2022-11-23T04:46:47;96181.03;;;-1.18;100.00
498;BME280;39559;48.630;9.162;2022-11-23T04:49:15;96189.00;;;-1.38;100.00
498;BME280;39559;48.630;9.162;2022-11-23T04:51:40;96185.84;;;-1.52;100.00
498;BME280;39559;48.630;9.162;2022-11-23T04:54:06;96186.38;;;-1.35;100.00
498;BME280;39559;48.630;9.162;2022-11-23T04:58:41;96188.78;;;-1.26;100.00
498;BME280;39559;48.630;9.162;2022-11-23T05:01:07;96186.19;;;-1.23;100.00
498;BME280;39559;48.630;9.162;2022-11-23T05:03:33;96192.09;;;-1.21;100.00
498;BME280;39559;48.630;9.162;2022-11-23T05:06:02;96190.16;;;-1.06;100.00
498;BME280;39559;48.630;9.162;2022-11-23T05:08:29;96191.16;;;-1.15;100.00
498;BME280;39559;48.630;9.162;2022-11-23T05:10:54;96181.25;;;-1.32;100.00
498;BME280;39559;48.630;9.162;2022-11-23T05:13:20;96188.06;;;-1.32;100.00
498;BME280;39559;48.630;9.162;2022-11-23T05:15:46;96189.03;;;-1.41;100.00
498;BME280;39559;48.630;9.162;2022-11-23T05:18:11;96192.84;;;-1.14;100.00
498;BME280;39559;48.630;9.162;2022-11-23T05:22:42;96186.16;;;-1.20;100.00
498;BME280;39559;48.630;9.162;2022-11-23T05:25:08;96190.00;;;-1.47;100.00
498;BME280;39559;48.630;9.162;2022-11-23T05:27:34;96179.72;;;-1.44;100.00
498;BME280;39559;48.630;9.162;2022-11-23T05:30:00;96178.88;;;-1.41;100.00
498;BME280;39559;48.630;9.162;2022-11-23T05:32:26;96186.13;;;-1.18;100.00
498;BME280;39559;48.630;9.162;2022-11-23T05:34:51;96182.06;;;-1.30;100.00
498;BME280;39559;48.630;9.162;2022-11-23T05:37:17;96177.75;;;-1.25;100.00
498;BME280;39559;48.630;9.162;2022-11-23T05:39:43;96178.47;;;-1.18;100.00
498;BME280;39559;48.630;9.162;2022-11-23T05:42:08;96178.47;;;-1.18;100.00
498;BME280;39559;48.630;9.162;2022-11-23T05:46:44;96186.78;;;-1.07;100.00
498;BME280;39559;48.630;9.162;2022-11-23T05:49:10;96182.63;;;-1.12;100.00
498;BME280;39559;48.630;9.162;2022-11-23T05:51:35;96182.69;;;-1.17;100.00
498;BME280;39559;48.630;9.162;2022-11-23T05:54:01;96179.53;;;-1.31;100.00
498;BME280;39559;48.630;9.162;2022-11-23T05:56:27;96187.28;;;-1.38;100.00
498;BME280;39559;48.630;9.162;2022-11-23T05:58:54;96189.69;;;-1.28;100.00
498;BME280;39559;48.630;9.162;2022-11-23T06:01:21;96184.41;;;-1.18;100.00
498;BME280;39559;48.630;9.162;2022-11-23T06:03:49;96174.81;;;-1.03;100.00
498;BME280;39559;48.630;9.162;2022-11-23T06:06:14;96175.63;;;-1.01;100.00
498;BME280;39559;48.630;9.162;2022-11-23T06:10:45;96174.59;;;-0.91;100.00
498;BME280;39559;48.630;9.162;2022-11-23T06:13:11;96173.59;;;-0.84;100.00
498;BME280;39559;48.630;9.162;2022-11-23T06:15:36;96177.78;;;-0.80;100.00
498;BME280;39559;48.630;9.162;2022-11-23T06:18:02;96177.88;;;-0.86;100.00
498;BME280;39559;48.630;9.162;2022-11-23T06:20:28;96169.06;;;-0.69;100.00
498;BME280;39559;48.630;9.162;2022-11-23T06:22:54;96176.91;;;-0.80;100.00
498;BME280;39559;48.630;9.162;2022-11-23T06:25:21;96174.84;;;-0.60;100.00
498;BME280;39559;48.630;9.162;2022-11-23T06:27:56;96176.03;;;-0.78;100.00
498;BME280;39559;48.630;9.162;2022-11-23T06:30:24;96169.25;;;-0.79;100.00
498;BME280;39559;48.630;9.162;2022-11-23T06:34:48;96173.19;;;-0.62;100.00
498;BME280;39559;48.630;9.162;2022-11-23T06:37:13;96172.09;;;-0.50;100.00
498;BME280;39559;48.630;9.162;2022-11-23T06:39:39;96180.19;;;-0.72;100.00
498;BME280;39559;48.630;9.162;2022-11-23T06:42:04;96173.66;;;-0.87;100.00
498;BME280;39559;48.630;9.162;2022-11-23T06:44:30;96186.09;;;-0.71;100.00
498;BME280;39559;48.630;9.162;2022-11-23T06:46:55;96187.06;;;-0.77;100.00
498;BME280;39559;48.630;9.162;2022-11-23T06:49:21;96182.66;;;-0.67;100.00
498;BME280;39559;48.630;9.162;2022-11-23T06:51:46;96191.00;;;-0.61;100.00
498;BME280;39559;48.630;9.162;2022-11-23T06:54:12;96183.63;;;-0.74;100.00
498;BME280;39559;48.630;9.162;2022-11-23T06:58:49;96191.38;;;-0.81;100.00
498;BME280;39559;48.630;9.162;2022-11-23T07:01:15;96189.41;;;-0.66;100.00
498;BME280;39559;48.630;9.162;2022-11-23T07:03:40;96198.22;;;-0.83;100.00
498;BME280;39559;48.630;9.162;2022-11-23T07:06:07;96193.94;;;-0.81;100.00
498;BME280;39559;48.630;9.162;2022-11-23T07:08:34;96199.06;;;-0.82;100.00
498;BME280;39559;48.630;9.162;2022-11-23T07:11:01;96201.41;;;-0.71;100.00
498;BME280;39559;48.630;9.162;2022-11-23T07:13:26;96205.88;;;-0.84;100.00
498;BME280;39559;48.630;9.162;2022-11-23T07:15:52;96208.56;;;-0.45;100.00
498;BME280;39559;48.630;9.162;2022-11-23T07:18:17;96193.41;;;-0.53;100.00
498;BME280;39559;48.630;9.162;2022-11-23T07:23:05;96200.22;;;-1.00;100.00
498;BME280;39559;48.630;9.162;2022-11-23T07:25:33;96204.59;;;-1.05;100.00
498;BME280;39559;48.630;9.162;2022-11-23T07:28:00;96207.88;;;-1.00;100.00
498;BME280;39559;48.630;9.162;2022-11-23T07:30:28;96208.00;;;-1.08;100.00
498;BME280;39559;48.630;9.162;2022-11-23T07:33:04;96211.97;;;-0.93;100.00
498;BME280;39559;48.630;9.162;2022-11-23T07:35:30;96213.00;;;-1.02;100.00
498;BME280;39559;48.630;9.162;2022-11-23T07:37:59;96207.84;;;-0.99;100.00
498;BME280;39559;48.630;9.162;2022-11-23T07:40:25;96207.13;;;-1.05;100.00
498;BME280;39559;48.630;9.162;2022-11-23T07:42:51;96207.94;;;-1.03;100.00
498;BME280;39559;48.630;9.162;2022-11-23T07:46:53;96217.03;;;-0.90;100.00
498;BME280;39559;48.630;9.162;2022-11-23T07:49:19;96220.56;;;-0.97;100.00
498;BME280;39559;48.630;9.162;2022-11-23T07:51:44;96221.47;;;-1.00;100.00
498;BME280;39559;48.630;9.162;2022-11-23T07:54:10;96223.25;;;-1.05;100.00
498;BME280;39559;48.630;9.162;2022-11-23T07:56:35;96224.69;;;-0.90;100.00
498;BME280;39559;48.630;9.162;2022-11-23T07:59:01;96221.53;;;-0.56;100.00
498;BME280;39559;48.630;9.162;2022-11-23T08:01:26;96223.66;;;-0.80;100.00
498;BME280;39559;48.630;9.162;2022-11-23T08:03:52;96229.59;;;-0.81;100.00
498;BME280;39559;48.630;9.162;2022-11-23T08:06:17;96223.09;;;-0.49;100.00
498;BME280;39559;48.630;9.162;2022-11-23T08:11:08;96227.22;;;-0.90;100.00
498;BME280;39559;48.630;9.162;2022-11-23T08:13:35;96231.28;;;-0.78;100.00
498;BME280;39559;48.630;9.162;2022-11-23T08:16:02;96222.00;;;-0.84;100.00
498;BME280;39559;48.630;9.162;2022-11-23T08:18:27;96228.44;;;-0.63;100.00
498;BME280;39559;48.630;9.162;2022-11-23T08:20:53;96220.75;;;-0.61;100.00
498;BME280;39559;48.630;9.162;2022-11-23T08:23:20;96219.31;;;-0.74;100.00
498;BME280;39559;48.630;9.162;2022-11-23T08:25:45;96221.97;;;-0.81;100.00
498;BME280;39559;48.630;9.162;2022-11-23T08:28:11;96220.78;;;-0.63;100.00
498;BME280;39559;48.630;9.162;2022-11-23T08:30:37;96223.75;;;-0.41;100.00
498;BME280;39559;48.630;9.162;2022-11-23T08:34:57;96221.94;;;-0.34;100.00
498;BME280;39559;48.630;9.162;2022-11-23T08:37:22;96230.53;;;-0.38;100.00
498;BME280;39559;48.630;9.162;2022-11-23T08:39:48;96227.78;;;-0.29;100.00
498;BME280;39559;48.630;9.162;2022-11-23T08:42:13;96214.41;;;0.40;100.00
498;BME280;39559;48.630;9.162;2022-11-23T08:44:39;96216.09;;;0.41;100.00
498;BME280;39559;48.630;9.162;2022-11-23T08:47:04;96219.63;;;0.71;100.00
498;BME280;39559;48.630;9.162;2022-11-23T08:49:30;96227.00;;;1.18;100.00
498;BME280;39559;48.630;9.162;2022-11-23T08:51:55;96214.81;;;1.90;100.00
498;BME280;39559;48.630;9.162;2022-11-23T08:54:21;96223.56;;;2.11;100.00
498;BME280;39559;48.630;9.162;2022-11-23T08:58:56;96207.53;;;4.10;100.00
498;BME280;39559;48.630;9.162;2022-11-23T09:01:22;96208.47;;;4.75;100.00
498;BME280;39559;48.630;9.162;2022-11-23T09:03:47;96197.59;;;6.47;100.00
498;BME280;39559;48.630;9.162;2022-11-23T09:06:13;96198.19;;;6.89;100.00
498;BME280;39559;48.630;9.162;2022-11-23T09:08:38;96197.78;;;8.16;100.00
498;BME280;39559;48.630;9.162;2022-11-23T09:11:06;96200.47;;;8.62;100.00
498;BME280;39559;48.630;9.162;2022-11-23T09:13:34;96206.09;;;9.45;100.00
498;BME280;39559;48.630;9.162;2022-11-23T09:16:02;96201.22;;;9.69;100.00
498;BME280;39559;48.630;9.162;2022-11-23T09:18:28;96208.19;;;9.97;99.60
498;BME280;39559;48.630;9.162;2022-11-23T09:23:02;96206.81;;;8.56;91.01
498;BME280;39559;48.630;9.162;2022-11-23T09:25:27;96204.97;;;8.74;100.00
498;BME280;39559;48.630;9.162;2022-11-23T09:27:59;96204.50;;;8.98;96.90
498;BME280;39559;48.630;9.162;2022-11-23T09:30:25;96203.06;;;8.62;97.46
498;BME280;39559;48.630;9.162;2022-11-23T09:32:51;96197.50;;;7.88;98.87
498;BME280;39559;48.630;9.162;2022-11-23T09:35:16;96197.81;;;7.98;100.00
498;BME280;39559;48.630;9.162;2022-11-23T09:37:42;96197.31;;;8.57;100.00
498;BME280;39559;48.630;9.162;2022-11-23T09:40:14;96196.47;;;8.56;99.91
498;BME280;39559;48.630;9.162;2022-11-23T09:42:52;96195.69;;;9.16;99.56
498;BME280;39559;48.630;9.162;2022-11-23T09:47:24;96195.22;;;9.83;88.72
498;BME280;39559;48.630;9.162;2022-11-23T09:52:23;96189.50;;;8.73;92.64
498;BME280;39559;48.630;9.162;2022-11-23T09:54:52;96186.31;;;8.83;90.33
498;BME280;39559;48.630;9.162;2022-11-23T09:57:23;96183.16;;;8.15;98.66
498;BME280;39559;48.630;9.162;2022-11-23T10:00:16;96182.31;;;7.82;100.00
498;BME280;39559;48.630;9.162;2022-11-23T10:02:43;96184.69;;;7.36;100.00
498;BME280;39559;48.630;9.162;2022-11-23T10:05:16;96188.56;;;6.92;98.60
498;BME280;39559;48.630;9.162;2022-11-23T10:07:53;96185.38;;;6.70;96.76
498;BME280;39559;48.630;9.162;2022-11-23T10:16:58;96177.72;;;7.87;100.00
498;BME280;39559;48.630;9.162;2022-11-23T10:19:42;96183.00;;;8.18;93.10
498;BME280;39559;48.630;9.162;2022-11-23T10:22:24;96174.16;;;8.22;91.06
498;BME280;39559;48.630;9.162;2022-11-23T10:24:52;96184.41;;;8.71;91.33
498;BME280;39559;48.630;9.162;2022-11-23T10:27:22;96181.03;;;8.55;83.66
498;BME280;39559;48.630;9.162;2022-11-23T10:29:49;96178.28;;;8.42;86.50
498;BME280;39559;48.630;9.162;2022-11-23T10:35:11;96177.84;;;8.65;81.54
498;BME280;39559;48.630;9.162;2022-11-23T10:37:38;96177.78;;;9.56;75.47
498;BME280;39559;48.630;9.162;2022-11-23T10:40:20;96175.66;;;9.49;78.45
498;BME280;39559;48.630;9.162;2022-11-23T10:42:55;96162.78;;;10.19;75.29
498;BME280;39559;48.630;9.162;2022-11-23T10:45:26;96159.44;;;10.59;73.23
498;BME280;39559;48.630;9.162;2022-11-23T10:47:59;96165.56;;;10.85;66.39
498;BME280;39559;48.630;9.162;2022-11-23T10:50:27;96157.44;;;10.49;67.68
498;BME280;39559;48.630;9.162;2022-11-23T10:53:00;96160.31;;;9.74;73.42
498;BME280;39559;48.630;9.162;2022-11-23T10:55:44;96152.53;;;9.89;74.04
498;BME280;39559;48.630;9.162;2022-11-23T10:59:28;96148.81;;;9.78;71.20
498;BME280;39559;48.630;9.162;2022-11-23T11:02:12;96144.84;;;9.58;73.44
498;BME280;39559;48.630;9.162;2022-11-23T11:04:39;96145.91;;;10.41;73.54
498;BME280;39559;48.630;9.162;2022-11-23T11:07:26;96149.47;;;9.82;72.96
498;BME280;39559;48.630;9.162;2022-11-23T11:12:21;96162.88;;;10.17;69.56
498;BME280;39559;48.630;9.162;2022-11-23T11:15:12;96145.91;;;11.33;67.68
498;BME280;39559;48.630;9.162;2022-11-23T11:17:39;96142.56;;;11.83;66.32
498;BME280;39559;48.630;9.162;2022-11-23T11:23:17;96138.09;;;11.98;63.00
498;BME280;39559;48.630;9.162;2022-11-23T11:25:46;96135.28;;;11.62;65.76
498;BME280;39559;48.630;9.162;2022-11-23T11:28:24;96138.13;;;11.33;62.22
498;BME280;39559;48.630;9.162;2022-11-23T11:31:02;96144.97;;;11.34;61.35
498;BME280;39559;48.630;9.162;2022-11-23T11:33:41;96136.81;;;10.88;64.00
498;BME280;39559;48.630;9.162;2022-11-23T11:36:11;96134.06;;;12.79;64.24
498;BME280;39559;48.630;9.162;2022-11-23T11:38:43;96128.59;;;13.87;60.58
498;BME280;39559;48.630;9.162;2022-11-23T11:41:12;96129.53;;;13.86;59.85
498;BME280;39559;48.630;9.162;2022-11-23T11:43:48;96114.91;;;14.28;58.14
498;BME280;39559;48.630;9.162;2022-11-23T11:47:24;96120.50;;;11.88;59.88
498;BME280;39559;48.630;9.162;2022-11-23T11:49:55;96118.84;;;12.73;59.86
498;BME280;39559;48.630;9.162;2022-11-23T11:52:31;96115.34;;;12.85;59.45
498;BME280;39559;48.630;9.162;2022-11-23T11:55:22;96124.50;;;11.30;58.63
498;BME280;39559;48.630;9.162;2022-11-23T11:57:55;96113.94;;;11.83;60.58
498;BME280;39559;48.630;9.162;2022-11-23T12:00:20;96111.25;;;12.70;57.89
498;BME280;39559;48.630;9.162;2022-11-23T12:03:32;96107.84;;;11.32;58.86
498;BME280;39559;48.630;9.162;2022-11-23T12:05:52;96097.97;;;12.61;59.66
498;BME280;39559;48.630;9.162;2022-11-23T12:11:10;96091.31;;;10.28;63.76
498;BME280;39559;48.630;9.162;2022-11-23T12:13:39;96082.91;;;11.04;61.71
498;BME280;39559;48.630;9.162;2022-11-23T12:26:55;96084.31;;;9.31;64.08
498;BME280;39559;48.630;9.162;2022-11-23T12:35:30;96080.34;;;9.68;63.99
498;BME280;39559;48.630;9.162;2022-11-23T12:41:43;96080.47;;;10.35;68.10
498;BME280;39559;48.630;9.162;2022-11-23T12:46:39;96077.66;;;9.12;67.59
498;BME280;39559;48.630;9.162;2022-11-23T12:52:08;96076.50;;;8.88;68.17
498;BME280;39559;48.630;9.162;2022-11-23T12:59:11;96073.72;;;8.91;68.03
498;BME280;39559;48.630;9.162;2022-11-23T13:01:43;96069.47;;;8.75;72.96
498;BME280;39559;48.630;9.162;2022-11-23T13:07:17;96075.03;;;8.98;69.17
498;BME280;39559;48.630;9.162;2022-11-23T13:13:17;96070.97;;;8.94;69.23
498;BME280;39559;48.630;9.162;2022-11-23T13:16:10;96058.06;;;9.22;67.56
498;BME280;39559;48.630;9.162;2022-11-23T13:23:10;96049.72;;;10.15;68.09
498;BME280;39559;48.630;9.162;2022-11-23T13:25:36;96053.94;;;9.61;64.45
498;BME280;39559;48.630;9.162;2022-11-23T13:28:30;96051.38;;;9.18;67.83
498;BME280;39559;48.630;9.162;2022-11-23T13:34:42;96046.00;;;9.50;73.22
498;BME280;39559;48.630;9.162;2022-11-23T13:37:09;96042.13;;;9.14;68.17
498;BME280;39559;48.630;9.162;2022-11-23T13:42:17;96042.69;;;9.05;72.80
498;BME280;39559;48.630;9.162;2022-11-23T13:49:47;96023.44;;;8.95;75.94
498;BME280;39559;48.630;9.162;2022-11-23T13:54:59;96017.63;;;8.77;76.34
498;BME280;39559;48.630;9.162;2022-11-23T13:57:25;96017.25;;;9.12;76.46
498;BME280;39559;48.630;9.162;2022-11-23T13:59:50;96016.81;;;8.46;71.90
498;BME280;39559;48.630;9.162;2022-11-23T14:04:45;96010.31;;;8.83;73.63
498;BME280;39559;48.630;9.162;2022-11-23T14:11:16;95994.84;;;8.68;69.60
498;BME280;39559;48.630;9.162;2022-11-23T14:14:02;96000.50;;;8.74;71.91
498;BME280;39559;48.630;9.162;2022-11-23T14:16:51;96002.97;;;8.61;75.69
498;BME280;39559;48.630;9.162;2022-11-23T14:27:40;96003.63;;;8.35;74.72
498;BME280;39559;48.630;9.162;2022-11-23T14:30:19;95997.63;;;8.34;72.59
498;BME280;39559;48.630;9.162;2022-11-23T14:35:21;95996.13;;;8.46;70.98
498;BME280;39559;48.630;9.162;2022-11-23T14:41:08;95994.53;;;8.27;78.33
498;BME280;39559;48.630;9.162;2022-11-23T14:43:40;95991.22;;;7.95;79.02
498;BME280;39559;48.630;9.162;2022-11-23T14:46:14;95978.75;;;7.72;83.65
498;BME280;39559;48.630;9.162;2022-11-23T14:48:40;95977.94;;;7.55;82.09
498;BME280;39559;48.630;9.162;2022-11-23T14:51:12;95978.47;;;7.13;84.29
498;BME280;39559;48.630;9.162;2022-11-23T14:53:47;95972.22;;;7.17;84.17
498;BME280;39559;48.630;9.162;2022-11-23T14:59:19;95971.75;;;7.26;82.77
498;BME280;39559;48.630;9.162;2022-11-23T15:01:52;95973.13;;;7.00;85.72
498;BME280;39559;48.630;9.162;2022-11-23T15:04:29;95971.22;;;7.03;86.57
498;BME280;39559;48.630;9.162;2022-11-23T15:10:02;95957.72;;;6.31;91.12
498;BME280;39559;48.630;9.162;2022-11-23T15:12:47;95958.88;;;6.26;93.50
498;BME280;39559;48.630;9.162;2022-11-23T15:15:31;95963.56;;;6.18;93.33
498;BME280;39559;48.630;9.162;2022-11-23T15:18:02;95964.16;;;6.05;95.82
498;BME280;39559;48.630;9.162;2022-11-23T15:23:19;95967.22;;;5.94;94.98
498;BME280;39559;48.630;9.162;2022-11-23T15:25:52;95979.22;;;5.59;98.52
498;BME280;39559;48.630;9.162;2022-11-23T15:28:25;95971.31;;;5.45;100.00
498;BME280;39559;48.630;9.162;2022-11-23T15:30:51;95968.47;;;5.13;100.00
498;BME280;39559;48.630;9.162;2022-11-23T15:33:19;95971.41;;;5.24;100.00
498;BME280;39559;48.630;9.162;2022-11-23T15:35:45;95983.09;;;4.73;100.00
498;BME280;39559;48.630;9.162;2022-11-23T15:38:12;95976.91;;;4.58;100.00
498;BME280;39559;48.630;9.162;2022-11-23T15:40:41;95975.69;;;4.46;100.00
498;BME280;39559;48.630;9.162;2022-11-23T15:43:12;95974.19;;;4.61;100.00
498;BME280;39559;48.630;9.162;2022-11-23T15:47:13;95972.97;;;4.70;100.00
498;BME280;39559;48.630;9.162;2022-11-23T15:49:40;95970.81;;;4.60;100.00
498;BME280;39559;48.630;9.162;2022-11-23T15:52:11;95970.94;;;4.57;100.00
498;BME280;39559;48.630;9.162;2022-11-23T15:54:38;95980.75;;;4.68;100.00
498;BME280;39559;48.630;9.162;2022-11-23T15:57:21;95983.66;;;4.60;100.00
498;BME280;39559;48.630;9.162;2022-11-23T15:59:56;95987.69;;;4.66;100.00
498;BME280;39559;48.630;9.162;2022-11-23T16:02:28;95985.78;;;4.51;100.00
498;BME280;39559;48.630;9.162;2022-11-23T16:05:11;95987.63;;;4.47;100.00
498;BME280;39559;48.630;9.162;2022-11-23T16:07:57;95999.16;;;4.38;100.00
498;BME280;39559;48.630;9.162;2022-11-23T16:11:30;96010.66;;;4.30;100.00